createdAt,value
2022-10-05T00:00:26.440Z,96.79
2022-10-05T00:01:26.449Z,97.00
2022-10-05T00:02:26.414Z,96.89
2022-10-05T00:03:26.411Z,96.59
2022-10-05T00:04:26.376Z,96.38
2022-10-05T00:05:26.385Z,96.28
2022-10-05T00:06:26.361Z,96.18
2022-10-05T00:07:26.341Z,96.08
2022-10-05T00:08:26.359Z,95.97
2022-10-05T00:09:26.310Z,95.87
2022-10-05T00:10:26.312Z,95.77
2022-10-05T00:11:26.302Z,95.57
2022-10-05T00:12:26.305Z,95.36
2022-10-05T00:13:26.282Z,95.36
2022-10-05T00:14:26.281Z,95.31
2022-10-05T00:15:26.259Z,95.20
2022-10-05T00:16:26.290Z,95.20
2022-10-05T00:17:26.244Z,95.31
2022-10-05T00:18:26.235Z,95.31
2022-10-05T00:19:26.202Z,95.41
2022-10-05T00:20:26.212Z,95.51
2022-10-05T00:21:26.172Z,95.72
2022-10-05T00:22:26.184Z,95.72
2022-10-05T00:23:26.174Z,95.72
2022-10-05T00:24:26.169Z,95.81
2022-10-05T00:25:26.155Z,95.81
2022-10-05T00:26:26.146Z,95.72
2022-10-05T00:27:26.132Z,95.81
2022-10-05T00:28:26.182Z,95.92
2022-10-05T00:29:26.114Z,95.92
2022-10-05T00:30:26.095Z,96.02
2022-10-05T00:31:26.148Z,96.06
2022-10-05T00:32:26.105Z,96.06
2022-10-05T00:33:26.055Z,96.06
2022-10-05T00:34:26.046Z,96.06
2022-10-05T00:35:26.038Z,96.17
2022-10-05T00:36:26.048Z,96.17
2022-10-05T00:37:26.040Z,96.17
2022-10-05T00:38:26.010Z,96.27
2022-10-05T00:39:26.016Z,96.37
2022-10-05T00:40:25.995Z,96.47
2022-10-05T00:41:25.967Z,96.58
2022-10-05T00:42:25.969Z,96.88
2022-10-05T00:43:25.948Z,97.08
2022-10-05T00:44:25.970Z,97.19
2022-10-05T00:45:26.007Z,97.29
2022-10-05T00:46:25.919Z,97.44
2022-10-05T00:47:25.916Z,97.49
2022-10-05T00:48:25.898Z,97.49
2022-10-05T00:49:25.907Z,97.49
2022-10-05T00:50:25.875Z,97.49
2022-10-05T00:51:25.858Z,97.60
2022-10-05T00:52:25.871Z,97.80
2022-10-05T00:53:25.848Z,97.80
2022-10-05T00:54:25.851Z,97.90
2022-10-05T00:55:25.830Z,97.85
2022-10-05T00:56:25.818Z,97.80
2022-10-05T00:57:25.793Z,97.80
2022-10-05T00:58:25.801Z,97.90
2022-10-05T00:59:25.787Z,97.95
2022-10-05T01:00:25.779Z,97.95
2022-10-05T01:01:25.833Z,98.05
2022-10-05T01:02:25.801Z,98.15
2022-10-05T01:03:25.740Z,98.05
2022-10-05T01:04:25.761Z,98.15
2022-10-05T01:05:25.710Z,98.25
2022-10-05T01:06:25.701Z,98.25
2022-10-05T01:07:25.711Z,98.36
2022-10-05T01:08:25.714Z,98.36
2022-10-05T01:09:25.684Z,98.36
2022-10-05T01:10:25.660Z,98.36
2022-10-05T01:11:25.641Z,98.36
2022-10-05T01:12:25.643Z,98.25
2022-10-05T01:13:25.643Z,98.36
2022-10-05T01:14:25.652Z,98.46
2022-10-05T01:15:25.622Z,98.46
2022-10-05T01:16:25.674Z,98.46
2022-10-05T01:17:25.614Z,98.36
2022-10-05T01:18:25.582Z,98.36
2022-10-05T01:19:25.573Z,98.36
2022-10-05T01:20:25.564Z,98.36
2022-10-05T01:21:25.551Z,98.36
2022-10-05T01:22:25.543Z,98.25
2022-10-05T01:23:25.571Z,98.25
2022-10-05T01:24:25.538Z,98.25
2022-10-05T01:25:25.549Z,98.15
2022-10-05T01:26:25.530Z,98.15
2022-10-05T01:27:25.520Z,98.25
2022-10-05T01:28:25.586Z,98.25
2022-10-05T01:29:25.481Z,98.25
2022-10-05T01:30:25.483Z,98.25
2022-10-05T01:31:25.558Z,98.25
2022-10-05T01:32:25.452Z,98.25
2022-10-05T01:33:25.448Z,98.25
2022-10-05T01:34:25.432Z,98.15
2022-10-05T01:35:25.447Z,98.15
2022-10-05T01:36:25.440Z,98.15
2022-10-05T01:37:25.412Z,98.20
2022-10-05T01:38:25.383Z,98.20
2022-10-05T01:39:25.373Z,98.30
2022-10-05T01:40:25.383Z,98.40
2022-10-05T01:41:25.364Z,98.40
2022-10-05T01:42:25.383Z,98.36
2022-10-05T01:43:25.335Z,98.30
2022-10-05T01:44:25.327Z,98.40
2022-10-05T01:45:25.313Z,98.30
2022-10-05T01:46:25.323Z,98.30
2022-10-05T01:47:25.303Z,98.40
2022-10-05T01:48:25.294Z,98.40
2022-10-05T01:49:25.296Z,98.50
2022-10-05T01:50:25.274Z,98.50
2022-10-05T01:51:25.265Z,98.40
2022-10-05T01:52:25.237Z,98.40
2022-10-05T01:53:25.245Z,98.30
2022-10-05T01:54:25.236Z,98.50
2022-10-05T01:55:25.204Z,98.50
2022-10-05T01:56:25.195Z,98.50
2022-10-05T01:57:25.175Z,98.50
2022-10-05T01:58:25.174Z,98.61
2022-10-05T01:59:25.186Z,98.61
2022-10-05T02:00:25.158Z,98.50
2022-10-05T02:01:25.241Z,98.50
2022-10-05T02:02:25.206Z,98.61
2022-10-05T02:03:25.116Z,98.61
2022-10-05T02:04:59.960Z,98.61
2022-10-05T02:05:26.096Z,98.61
2022-10-05T02:06:25.104Z,98.61
2022-10-05T02:07:25.087Z,98.61
2022-10-05T02:08:25.097Z,98.61
2022-10-05T02:09:25.067Z,98.71
2022-10-05T02:10:25.050Z,98.71
2022-10-05T02:11:25.047Z,98.61
2022-10-05T02:12:25.040Z,98.61
2022-10-05T02:13:25.048Z,98.61
2022-10-05T02:14:25.037Z,98.61
2022-10-05T02:15:24.988Z,98.65
2022-10-05T02:16:25.101Z,98.65
2022-10-05T02:17:24.981Z,98.55
2022-10-05T02:18:24.989Z,98.55
2022-10-05T02:19:24.973Z,98.65
2022-10-05T02:20:24.963Z,98.65
2022-10-05T02:21:24.957Z,98.75
2022-10-05T02:22:24.919Z,98.96
2022-10-05T02:23:24.916Z,99.06
2022-10-05T02:24:24.929Z,99.06
2022-10-05T02:25:24.900Z,99.06
2022-10-05T02:26:24.888Z,99.06
2022-10-05T02:27:24.872Z,99.06
2022-10-05T02:28:24.928Z,98.96
2022-10-05T02:29:24.840Z,99.06
2022-10-05T02:30:24.860Z,99.06
2022-10-05T02:31:24.883Z,99.06
2022-10-05T02:32:24.820Z,99.06
2022-10-05T02:33:24.818Z,99.16
2022-10-05T02:34:24.801Z,99.06
2022-10-05T02:35:24.791Z,99.06
2022-10-05T02:36:24.804Z,98.96
2022-10-05T02:37:24.772Z,98.96
2022-10-05T02:38:24.748Z,98.86
2022-10-05T02:39:24.732Z,98.96
2022-10-05T02:40:24.733Z,98.86
2022-10-05T02:41:24.723Z,98.96
2022-10-05T02:42:24.711Z,98.96
2022-10-05T02:43:24.702Z,98.86
2022-10-05T02:44:24.683Z,98.86
2022-10-05T02:45:24.685Z,98.86
2022-10-05T02:46:24.741Z,98.80
2022-10-05T02:47:24.654Z,98.80
2022-10-05T02:48:24.670Z,98.65
2022-10-05T02:49:24.635Z,98.70
2022-10-05T02:50:24.615Z,98.70
2022-10-05T02:51:24.624Z,98.70
2022-10-05T02:52:24.613Z,98.70
2022-10-05T02:53:24.614Z,98.70
2022-10-05T02:54:24.604Z,98.60
2022-10-05T02:55:24.594Z,98.60
2022-10-05T02:56:24.575Z,98.60
2022-10-05T02:57:24.542Z,98.60
2022-10-05T02:58:24.536Z,98.60
2022-10-05T02:59:24.545Z,98.70
2022-10-05T03:00:24.538Z,98.60
2022-10-05T03:01:24.535Z,98.49
2022-10-05T03:02:24.597Z,98.60
2022-10-05T03:03:24.477Z,98.60
2022-10-05T03:04:24.486Z,98.60
2022-10-05T03:05:24.467Z,98.60
2022-10-05T03:06:24.456Z,98.49
2022-10-05T03:07:24.447Z,98.49
2022-10-05T03:08:24.444Z,98.39
2022-10-05T03:09:24.416Z,98.29
2022-10-05T03:10:24.406Z,98.29
2022-10-05T03:11:24.398Z,98.19
2022-10-05T03:12:24.397Z,98.19
2022-10-05T03:13:24.402Z,98.19
2022-10-05T03:14:24.397Z,98.19
2022-10-05T03:15:24.347Z,98.29
2022-10-05T03:16:24.383Z,98.39
2022-10-05T03:17:24.338Z,98.44
2022-10-05T03:18:28.568Z,98.54
2022-10-05T03:19:25.321Z,98.54
2022-10-05T03:20:24.309Z,98.54
2022-10-05T03:21:24.318Z,98.54
2022-10-05T03:22:24.278Z,98.44
2022-10-05T03:23:24.269Z,98.44
2022-10-05T03:24:24.277Z,98.44
2022-10-05T03:25:24.258Z,98.33
2022-10-05T03:26:24.271Z,98.33
2022-10-05T03:27:24.219Z,98.33
2022-10-05T03:28:24.427Z,98.24
2022-10-05T03:29:24.199Z,98.24
2022-10-05T03:30:24.209Z,98.13
2022-10-05T03:31:24.224Z,98.24
2022-10-05T03:32:24.170Z,98.13
2022-10-05T03:33:24.192Z,98.24
2022-10-05T03:34:24.162Z,98.24
2022-10-05T03:35:24.151Z,98.33
2022-10-05T03:36:24.149Z,98.33
2022-10-05T03:37:24.142Z,98.33
2022-10-05T03:38:24.114Z,98.44
2022-10-05T03:39:24.113Z,98.44
2022-10-05T03:40:24.100Z,98.54
2022-10-05T03:41:24.089Z,98.65
2022-10-05T03:42:24.061Z,98.79
2022-10-05T03:43:24.079Z,98.79
2022-10-05T03:44:24.052Z,98.90
2022-10-05T03:45:24.043Z,98.90
2022-10-05T03:46:24.095Z,98.99
2022-10-05T03:47:24.019Z,98.99
2022-10-05T03:48:24.024Z,99.20
2022-10-05T03:49:24.015Z,99.20
2022-10-05T03:50:23.985Z,99.30
2022-10-05T03:51:23.994Z,99.41
2022-10-05T03:52:23.973Z,99.41
2022-10-05T03:53:23.966Z,99.41
2022-10-05T03:54:23.947Z,99.41
2022-10-05T03:55:23.925Z,99.51
2022-10-05T03:56:23.913Z,99.51
2022-10-05T03:57:23.906Z,99.51
2022-10-05T03:58:23.901Z,99.51
2022-10-05T03:59:24.672Z,99.51
2022-10-05T04:00:23.889Z,99.51
2022-10-05T04:01:23.949Z,99.51
2022-10-05T04:02:23.908Z,99.51
2022-10-05T04:03:23.873Z,99.51
2022-10-05T04:04:23.845Z,99.61
2022-10-05T04:05:23.814Z,99.51
2022-10-05T04:06:23.826Z,99.61
2022-10-05T04:07:23.795Z,99.51
2022-10-05T04:08:23.804Z,99.51
2022-10-05T04:09:23.785Z,99.61
2022-10-05T04:10:23.765Z,99.61
2022-10-05T04:11:23.765Z,99.61
2022-10-05T04:12:23.793Z,99.61
2022-10-05T04:13:23.735Z,99.61
2022-10-05T04:14:23.758Z,99.61
2022-10-05T04:15:23.719Z,99.71
2022-10-05T04:16:23.787Z,99.71
2022-10-05T04:17:23.687Z,99.82
2022-10-05T04:18:23.710Z,99.82
2022-10-05T04:19:23.684Z,99.82
2022-10-05T04:20:23.677Z,99.91
2022-10-05T04:21:24.187Z,99.91
2022-10-05T04:22:23.667Z,99.91
2022-10-05T04:23:23.627Z,99.99
2022-10-05T04:24:23.670Z,99.99
2022-10-05T04:25:23.619Z,99.99
2022-10-05T04:26:23.618Z,99.99
2022-10-05T04:27:23.608Z,99.91
2022-10-05T04:28:27.011Z,99.91
2022-10-05T04:29:24.595Z,99.91
2022-10-05T04:30:23.588Z,99.91
2022-10-05T04:31:23.640Z,99.96
2022-10-05T04:32:23.561Z,99.91
2022-10-05T04:33:23.548Z,99.96
2022-10-05T04:34:23.526Z,99.96
2022-10-05T04:35:23.547Z,99.99
2022-10-05T04:36:23.546Z,99.99
2022-10-05T04:37:23.489Z,99.99
2022-10-05T04:38:23.481Z,99.99
2022-10-05T04:39:23.460Z,99.99
2022-10-05T04:40:23.450Z,99.99
2022-10-05T04:41:23.454Z,99.99
2022-10-05T04:42:23.459Z,99.99
2022-10-05T04:43:23.410Z,99.99
2022-10-05T04:44:23.420Z,99.99
2022-10-05T04:45:23.411Z,99.99
2022-10-05T04:46:23.453Z,99.99
2022-10-05T04:47:23.377Z,99.99
2022-10-05T04:48:23.378Z,99.99
2022-10-05T04:49:23.356Z,99.99
2022-10-05T04:50:23.351Z,99.99
2022-10-05T04:51:23.351Z,99.99
2022-10-05T04:52:23.353Z,99.99
2022-10-05T04:53:23.321Z,99.99
2022-10-05T04:54:23.323Z,99.99
2022-10-05T04:55:23.321Z,99.99
2022-10-05T04:56:23.279Z,99.99
2022-10-05T04:57:23.292Z,99.99
2022-10-05T04:58:23.252Z,99.99
2022-10-05T04:59:23.253Z,99.99
2022-10-05T05:00:23.244Z,99.99
2022-10-05T05:01:23.258Z,99.99
2022-10-05T05:02:23.212Z,99.99
2022-10-05T05:03:23.251Z,99.99
2022-10-05T05:04:23.232Z,99.99
2022-10-05T05:05:23.186Z,99.99
2022-10-05T05:06:23.163Z,99.99
2022-10-05T05:07:23.163Z,99.99
2022-10-05T05:08:23.144Z,99.99
2022-10-05T05:09:23.170Z,99.99
2022-10-05T05:10:23.124Z,99.99
2022-10-05T05:11:24.679Z,99.99
2022-10-05T05:12:23.125Z,99.99
2022-10-05T05:13:23.125Z,99.99
2022-10-05T05:14:23.084Z,99.99
2022-10-05T05:15:23.065Z,99.99
2022-10-05T05:16:23.133Z,99.96
2022-10-05T05:17:23.078Z,99.86
2022-10-05T05:18:23.060Z,99.86
2022-10-05T05:19:23.055Z,99.76
2022-10-05T05:20:23.015Z,99.76
2022-10-05T05:21:23.022Z,99.76
2022-10-05T05:22:23.032Z,99.86
2022-10-05T05:23:22.995Z,99.96
2022-10-05T05:24:22.996Z,99.96
2022-10-05T05:25:22.957Z,99.99
2022-10-05T05:26:22.957Z,99.99
2022-10-05T05:27:22.957Z,99.99
2022-10-05T05:28:23.025Z,99.99
2022-10-05T05:29:22.916Z,99.99
2022-10-05T05:30:22.978Z,99.99
2022-10-05T05:31:22.924Z,99.99
2022-10-05T05:32:22.907Z,99.99
2022-10-05T05:33:22.876Z,99.99
2022-10-05T05:34:22.867Z,99.99
2022-10-05T05:35:22.867Z,99.99
2022-10-05T05:36:23.508Z,99.99
2022-10-05T05:37:22.838Z,99.99
2022-10-05T05:38:22.851Z,99.99
2022-10-05T05:39:22.825Z,99.99
2022-10-05T05:40:22.815Z,99.99
2022-10-05T05:41:22.790Z,99.99
2022-10-05T05:42:22.813Z,99.99
2022-10-05T05:43:22.780Z,99.99
2022-10-05T05:44:22.768Z,99.99
2022-10-05T05:45:22.769Z,99.99
2022-10-05T05:46:33.953Z,99.99
2022-10-05T05:47:23.796Z,99.91
2022-10-05T05:48:22.727Z,99.80
2022-10-05T05:49:22.728Z,99.80
2022-10-05T05:50:22.689Z,99.80
2022-10-05T05:51:22.689Z,99.80
2022-10-05T05:52:22.670Z,99.80
2022-10-05T05:53:22.682Z,99.91
2022-10-05T05:54:22.650Z,99.91
2022-10-05T05:55:26.449Z,99.91
2022-10-05T05:56:23.641Z,99.91
2022-10-05T05:57:22.640Z,99.91
2022-10-05T05:58:22.629Z,99.91
2022-10-05T05:59:22.621Z,99.80
2022-10-05T06:00:22.608Z,99.80
2022-10-05T06:01:32.636Z,99.80
2022-10-05T06:02:23.723Z,99.70
2022-10-05T06:03:22.718Z,99.70
2022-10-05T06:04:22.563Z,99.70
2022-10-05T06:05:22.552Z,99.70
2022-10-05T06:06:22.532Z,99.60
2022-10-05T06:07:25.699Z,99.60
2022-10-05T06:08:23.523Z,99.50
2022-10-05T06:09:22.512Z,99.40
2022-10-05T06:10:22.490Z,99.40
2022-10-05T06:11:22.483Z,99.29
2022-10-05T06:12:22.491Z,99.29
2022-10-05T06:13:22.472Z,99.29
2022-10-05T06:14:22.491Z,99.29
2022-10-05T06:15:22.434Z,99.40
2022-10-05T06:16:22.454Z,99.40
2022-10-05T06:17:22.413Z,99.40
2022-10-05T06:18:22.401Z,99.40
2022-10-05T06:19:22.426Z,99.40
2022-10-05T06:20:22.373Z,99.50
2022-10-05T06:21:22.373Z,99.50
2022-10-05T06:22:22.367Z,99.60
2022-10-05T06:23:22.383Z,99.66
2022-10-05T06:24:22.355Z,99.76
2022-10-05T06:25:22.343Z,99.76
2022-10-05T06:26:22.344Z,99.76
2022-10-05T06:27:22.303Z,99.76
2022-10-05T06:28:22.320Z,99.76
2022-10-05T06:29:22.395Z,99.76
2022-10-05T06:30:22.276Z,99.76
2022-10-05T06:31:22.333Z,99.76
2022-10-05T06:32:22.263Z,99.86
2022-10-05T06:33:22.276Z,99.86
2022-10-05T06:34:22.225Z,99.86
2022-10-05T06:35:22.234Z,99.86
2022-10-05T06:36:22.215Z,99.96
2022-10-05T06:37:22.196Z,99.99
2022-10-05T06:38:22.213Z,99.99
2022-10-05T06:39:22.181Z,99.99
2022-10-05T06:40:22.157Z,99.99
2022-10-05T06:41:22.166Z,99.99
2022-10-05T06:42:22.154Z,99.99
2022-10-05T06:43:22.163Z,99.99
2022-10-05T06:44:22.117Z,99.99
2022-10-05T06:45:22.118Z,99.99
2022-10-05T06:46:22.226Z,99.99
2022-10-05T06:47:22.127Z,99.99
2022-10-05T06:48:22.098Z,99.99
2022-10-05T06:49:22.067Z,99.99
2022-10-05T06:50:22.092Z,99.99
2022-10-05T06:51:22.058Z,99.99
2022-10-05T06:52:22.028Z,99.99
2022-10-05T06:53:22.027Z,99.99
2022-10-05T06:54:22.029Z,99.99
2022-10-05T06:55:22.021Z,99.99
2022-10-05T06:56:22.018Z,99.99
2022-10-05T06:57:21.997Z,99.99
2022-10-05T06:58:21.982Z,99.99
2022-10-05T06:59:21.959Z,99.99
2022-10-05T07:00:21.960Z,99.99
2022-10-05T07:01:22.012Z,99.99
2022-10-05T07:02:22.026Z,99.99
2022-10-05T07:03:21.922Z,99.99
2022-10-05T07:04:21.901Z,99.99
2022-10-05T07:05:21.909Z,99.99
2022-10-05T07:06:21.930Z,99.99
2022-10-05T07:07:21.877Z,99.99
2022-10-05T07:08:21.890Z,99.99
2022-10-05T07:09:21.869Z,99.99
2022-10-05T07:10:21.850Z,99.99
2022-10-05T07:11:21.871Z,99.99
2022-10-05T07:12:21.820Z,99.99
2022-10-05T07:13:21.832Z,99.99
2022-10-05T07:14:21.800Z,99.99
2022-10-05T07:15:21.791Z,99.99
2022-10-05T07:16:21.828Z,99.99
2022-10-05T07:17:21.783Z,99.99
2022-10-05T07:18:21.753Z,99.99
2022-10-05T07:19:21.769Z,99.99
2022-10-05T07:20:21.733Z,99.99
2022-10-05T07:21:21.734Z,99.98
2022-10-05T07:22:21.741Z,99.98
2022-10-05T07:23:21.702Z,99.88
2022-10-05T07:24:21.702Z,99.78
2022-10-05T07:25:21.684Z,99.68
2022-10-05T07:26:21.675Z,99.52
2022-10-05T07:27:21.662Z,99.52
2022-10-05T07:28:21.728Z,99.43
2022-10-05T07:29:21.651Z,99.43
2022-10-05T07:30:21.640Z,99.43
2022-10-05T07:31:21.706Z,99.43
2022-10-05T07:32:21.613Z,99.32
2022-10-05T07:33:21.603Z,99.22
2022-10-05T07:34:21.604Z,99.11
2022-10-05T07:35:21.583Z,99.11
2022-10-05T07:36:21.585Z,98.97
2022-10-05T07:37:21.575Z,98.97
2022-10-05T07:38:21.574Z,98.97
2022-10-05T07:39:21.542Z,98.86
2022-10-05T07:40:21.517Z,98.97
2022-10-05T07:41:21.546Z,98.97
2022-10-05T07:42:21.515Z,99.07
2022-10-05T07:43:21.508Z,98.97
2022-10-05T07:44:21.506Z,98.86
2022-10-05T07:45:21.496Z,98.77
2022-10-05T07:46:21.547Z,98.72
2022-10-05T07:47:21.464Z,98.72
2022-10-05T07:48:21.457Z,98.61
2022-10-05T07:49:21.444Z,98.61
2022-10-05T07:50:21.417Z,98.72
2022-10-05T07:51:21.415Z,98.72
2022-10-05T07:52:21.388Z,98.72
2022-10-05T07:53:21.409Z,98.72
2022-10-05T07:54:21.397Z,98.72
2022-10-05T07:55:21.371Z,98.72
2022-10-05T07:56:21.398Z,98.57
2022-10-05T07:57:21.348Z,98.47
2022-10-05T07:58:21.349Z,98.36
2022-10-05T07:59:21.318Z,98.27
2022-10-05T08:00:21.381Z,98.16
2022-10-05T08:01:21.341Z,98.06
2022-10-05T08:02:21.384Z,97.86
2022-10-05T08:03:21.312Z,97.65
2022-10-05T08:04:21.316Z,97.50
2022-10-05T08:05:21.267Z,97.30
2022-10-05T08:06:21.259Z,97.20
2022-10-05T08:07:21.300Z,97.00
2022-10-05T08:08:21.229Z,97.00
2022-10-05T08:09:21.230Z,96.79
2022-10-05T08:10:21.256Z,96.59
2022-10-05T08:11:21.207Z,96.48
2022-10-05T08:12:21.181Z,96.34
2022-10-05T08:13:21.170Z,96.34
2022-10-05T08:14:21.171Z,96.23
2022-10-05T08:15:21.153Z,95.93
2022-10-05T08:16:21.207Z,95.93
2022-10-05T08:17:25.433Z,95.83
2022-10-05T08:18:22.135Z,95.73
2022-10-05T08:19:21.102Z,95.73
2022-10-05T08:20:21.230Z,95.73
2022-10-05T08:21:21.102Z,95.68
2022-10-05T08:22:21.100Z,95.68
2022-10-05T08:23:21.082Z,95.68
2022-10-05T08:24:21.063Z,95.48
2022-10-05T08:25:21.065Z,95.48
2022-10-05T08:26:21.063Z,95.58
2022-10-05T08:27:21.025Z,95.58
2022-10-05T08:28:21.074Z,95.68
2022-10-05T08:29:21.012Z,95.78
2022-10-05T08:30:21.026Z,95.68
2022-10-05T08:31:21.055Z,95.64
2022-10-05T08:32:20.984Z,95.64
2022-10-05T08:33:20.981Z,95.53
2022-10-05T08:34:20.955Z,95.03
2022-10-05T08:35:20.945Z,94.92
2022-10-05T08:36:20.933Z,94.82
2022-10-05T08:37:20.935Z,94.72
2022-10-05T08:38:20.905Z,94.72
2022-10-05T08:39:20.904Z,94.62
2022-10-05T08:40:20.904Z,94.62
2022-10-05T08:41:20.874Z,94.47
2022-10-05T08:42:20.882Z,94.47
2022-10-05T08:43:20.874Z,94.47
2022-10-05T08:44:20.884Z,94.27
2022-10-05T08:45:20.836Z,94.27
2022-10-05T08:46:20.872Z,94.17
2022-10-05T08:47:20.805Z,94.07
2022-10-05T08:48:20.805Z,94.17
2022-10-05T08:49:20.808Z,94.02
2022-10-05T08:50:20.786Z,93.92
2022-10-05T08:51:20.786Z,93.92
2022-10-05T08:52:20.757Z,94.12
2022-10-05T08:53:20.755Z,94.32
2022-10-05T08:54:20.738Z,94.23
2022-10-05T08:55:20.750Z,93.92
2022-10-05T08:56:23.119Z,93.87
2022-10-05T08:57:21.735Z,93.67
2022-10-05T08:58:20.688Z,93.47
2022-10-05T08:59:20.698Z,93.06
2022-10-05T09:00:20.679Z,92.76
2022-10-05T09:01:20.759Z,92.82
2022-10-05T09:02:20.705Z,92.71
2022-10-05T09:03:20.651Z,92.71
2022-10-05T09:04:20.633Z,92.30
2022-10-05T09:05:20.608Z,92.21
2022-10-05T09:06:20.599Z,92.30
2022-10-05T09:07:20.607Z,92.21
2022-10-05T09:08:20.631Z,92.00
2022-10-05T09:09:20.589Z,91.96
2022-10-05T09:10:20.560Z,91.86
2022-10-05T09:11:20.570Z,91.86
2022-10-05T09:12:20.556Z,91.75
2022-10-05T09:13:20.538Z,91.65
2022-10-05T09:14:20.528Z,91.86
2022-10-05T09:15:25.853Z,91.75
2022-10-05T09:16:21.541Z,91.71
2022-10-05T09:17:20.494Z,91.61
2022-10-05T09:18:20.491Z,91.30
2022-10-05T09:19:20.471Z,91.00
2022-10-05T09:20:20.451Z,90.66
2022-10-05T09:21:20.511Z,90.55
2022-10-05T09:22:20.434Z,90.55
2022-10-05T09:23:20.422Z,90.45
2022-10-05T09:24:20.432Z,90.66
2022-10-05T09:25:20.412Z,90.66
2022-10-05T09:26:20.428Z,90.75
2022-10-05T09:27:20.409Z,91.06
2022-10-05T09:28:20.442Z,90.92
2022-10-05T09:29:20.362Z,90.51
2022-10-05T09:30:20.343Z,90.51
2022-10-05T09:31:20.406Z,90.41
2022-10-05T09:32:20.360Z,90.20
2022-10-05T09:33:20.334Z,90.11
2022-10-05T09:34:20.314Z,90.31
2022-10-05T09:35:20.313Z,90.36
2022-10-05T09:36:20.302Z,90.36
2022-10-05T09:37:20.285Z,90.26
2022-10-05T09:38:20.284Z,90.36
2022-10-05T09:39:20.275Z,89.96
2022-10-05T09:40:20.246Z,89.96
2022-10-05T09:41:20.255Z,89.92
2022-10-05T09:42:20.265Z,89.81
2022-10-05T09:43:20.220Z,89.92
2022-10-05T09:44:20.215Z,89.92
2022-10-05T09:45:21.480Z,89.72
2022-10-05T09:46:20.305Z,89.17
2022-10-05T09:47:20.197Z,88.86
2022-10-05T09:48:20.158Z,88.66
2022-10-05T09:49:20.167Z,88.46
2022-10-05T09:50:20.154Z,88.21
2022-10-05T09:51:20.167Z,88.11
2022-10-05T09:52:20.131Z,88.11
2022-10-05T09:53:20.096Z,88.01
2022-10-05T09:54:20.122Z,87.97
2022-10-05T09:55:20.077Z,87.87
2022-10-05T09:56:20.123Z,87.46
2022-10-05T09:57:20.057Z,86.85
2022-10-05T09:58:20.068Z,86.45
2022-10-05T09:59:20.050Z,86.55
2022-10-05T10:00:20.058Z,86.61
2022-10-05T10:01:33.198Z,86.41
2022-10-05T10:02:21.132Z,86.41
2022-10-05T10:03:20.029Z,86.21
2022-10-05T10:04:19.999Z,86.51
2022-10-05T10:05:19.970Z,86.37
2022-10-05T10:06:19.990Z,86.67
2022-10-05T10:07:19.951Z,85.76
2022-10-05T10:08:19.962Z,85.56
2022-10-05T10:09:19.970Z,85.46
2022-10-05T10:10:19.921Z,85.22
2022-10-05T10:11:19.948Z,85.22
2022-10-05T10:12:19.939Z,85.02
2022-10-05T10:13:19.901Z,84.77
2022-10-05T10:14:19.891Z,84.77
2022-10-05T10:15:19.872Z,84.77
2022-10-05T10:16:19.984Z,84.77
2022-10-05T10:17:19.885Z,85.08
2022-10-05T10:18:19.876Z,84.97
2022-10-05T10:19:19.839Z,84.53
2022-10-05T10:20:19.844Z,84.43
2022-10-05T10:21:19.834Z,84.43
2022-10-05T10:22:19.813Z,84.03
2022-10-05T10:23:19.791Z,83.78
2022-10-05T10:24:19.787Z,83.58
2022-10-05T10:25:19.753Z,83.18
2022-10-05T10:26:19.758Z,83.18
2022-10-05T10:27:19.755Z,82.93
2022-10-05T10:28:20.001Z,83.24
2022-10-05T10:29:19.771Z,83.34
2022-10-05T10:30:19.716Z,83.04
2022-10-05T10:31:19.736Z,83.10
2022-10-05T10:32:19.705Z,82.79
2022-10-05T10:33:19.698Z,82.70
2022-10-05T10:34:19.694Z,82.35
2022-10-05T10:35:19.995Z,82.05
2022-10-05T10:36:19.651Z,81.85
2022-10-05T10:37:19.657Z,82.15
2022-10-05T10:38:19.617Z,82.01
2022-10-05T10:39:19.639Z,81.61
2022-10-05T10:40:19.604Z,81.01
2022-10-05T10:41:19.592Z,81.10
2022-10-05T10:42:23.886Z,81.07
2022-10-05T10:43:20.567Z,80.97
2022-10-05T10:44:19.588Z,80.77
2022-10-05T10:45:19.541Z,80.43
2022-10-05T10:46:19.593Z,80.43
2022-10-05T10:47:19.528Z,79.92
2022-10-05T10:48:19.529Z,79.58
2022-10-05T10:49:19.499Z,79.58
2022-10-05T10:50:19.491Z,79.68
2022-10-05T10:51:19.489Z,79.44
2022-10-05T10:52:19.477Z,79.35
2022-10-05T10:53:19.490Z,79.44
2022-10-05T10:54:19.451Z,78.54
2022-10-05T10:55:19.463Z,78.80
2022-10-05T10:56:19.436Z,78.60
2022-10-05T10:57:19.428Z,78.56
2022-10-05T10:58:19.477Z,78.16
2022-10-05T10:59:19.413Z,78.16
2022-10-05T11:00:19.389Z,77.92
2022-10-05T11:01:19.460Z,77.12
2022-10-05T11:02:19.439Z,77.22
2022-10-05T11:03:19.352Z,76.82
2022-10-05T11:04:19.360Z,76.42
2022-10-05T11:05:19.335Z,76.42
2022-10-05T11:06:19.343Z,76.08
2022-10-05T11:07:19.313Z,76.18
2022-10-05T11:08:19.303Z,75.95
2022-10-05T11:09:19.301Z,75.04
2022-10-05T11:10:19.314Z,74.44
2022-10-05T11:11:19.275Z,74.30
2022-10-05T11:12:19.274Z,74.20
2022-10-05T11:13:19.249Z,74.20
2022-10-05T11:14:19.255Z,73.97
2022-10-05T11:15:19.236Z,73.47
2022-10-05T11:16:19.920Z,72.86
2022-10-05T11:17:19.207Z,72.66
2022-10-05T11:18:19.207Z,72.93
2022-10-05T11:19:19.197Z,72.63
2022-10-05T11:20:19.175Z,72.53
2022-10-05T11:21:19.217Z,72.53
2022-10-05T11:22:19.176Z,72.39
2022-10-05T11:23:19.138Z,72.09
2022-10-05T11:24:19.129Z,71.96
2022-10-05T11:25:19.138Z,71.26
2022-10-05T11:26:19.134Z,71.46
2022-10-05T11:27:19.137Z,71.23
2022-10-05T11:28:19.154Z,70.92
2022-10-05T11:29:19.089Z,69.99
2022-10-05T11:30:19.077Z,70.19
2022-10-05T11:31:19.124Z,69.79
2022-10-05T11:32:19.079Z,69.46
2022-10-05T11:33:19.040Z,69.56
2022-10-05T11:34:19.021Z,68.82
2022-10-05T11:35:19.040Z,68.82
2022-10-05T11:36:19.001Z,68.59
2022-10-05T11:37:19.042Z,68.66
2022-10-05T11:38:18.982Z,67.76
2022-10-05T11:39:18.980Z,68.03
2022-10-05T11:40:18.972Z,67.73
2022-10-05T11:41:18.943Z,68.19
2022-10-05T11:42:18.953Z,67.36
2022-10-05T11:43:18.933Z,66.77
2022-10-05T11:44:18.916Z,66.04
2022-10-05T11:45:18.905Z,65.61
2022-10-05T11:46:18.972Z,65.08
2022-10-05T11:47:18.885Z,64.36
2022-10-05T11:48:18.875Z,63.82
2022-10-05T11:49:18.856Z,62.30
2022-10-05T11:50:18.863Z,61.18
2022-10-05T11:51:18.858Z,60.72
2022-10-05T11:52:18.835Z,58.88
2022-10-05T11:53:18.817Z,58.40
2022-10-05T11:54:18.839Z,55.65
2022-10-05T11:55:18.807Z,52.19
2022-10-05T11:56:18.819Z,49.95
2022-10-05T11:57:19.496Z,47.71
2022-10-05T11:58:18.768Z,46.19
2022-10-05T11:59:18.783Z,45.04
2022-10-05T12:00:18.749Z,44.12
2022-10-05T12:01:18.730Z,43.46
2022-10-05T12:02:18.781Z,41.93
2022-10-05T12:03:18.782Z,40.92
2022-10-05T12:04:18.712Z,39.76
2022-10-05T12:05:18.691Z,38.23
2022-10-05T12:06:18.711Z,36.89
2022-10-05T12:07:18.682Z,35.15
2022-10-05T12:08:18.663Z,34.34
2022-10-05T12:09:18.674Z,33.54
2022-10-05T12:10:18.673Z,32.82
2022-10-05T12:11:18.634Z,32.23
2022-10-05T12:12:18.624Z,31.73
2022-10-05T12:13:18.655Z,31.24
2022-10-05T12:14:18.617Z,31.24
2022-10-05T12:15:18.593Z,31.62
2022-10-05T12:16:18.697Z,30.90
2022-10-05T12:17:18.578Z,30.50
2022-10-05T12:18:18.577Z,30.42
2022-10-05T12:19:18.547Z,30.34
2022-10-05T12:20:18.555Z,30.74
2022-10-05T12:21:18.575Z,30.85
2022-10-05T12:22:18.519Z,31.04
2022-10-05T12:23:18.518Z,30.82
2022-10-05T12:24:21.190Z,30.19
2022-10-05T12:25:18.500Z,29.49
2022-10-05T12:26:18.491Z,28.89
2022-10-05T12:27:18.511Z,28.49
2022-10-05T12:28:18.542Z,28.17
2022-10-05T12:29:18.465Z,27.87
2022-10-05T12:30:18.472Z,27.48
2022-10-05T12:31:18.500Z,27.58
2022-10-05T12:32:18.451Z,27.76
2022-10-05T12:33:18.415Z,27.47
2022-10-05T12:34:18.433Z,27.05
2022-10-05T12:35:36.564Z,26.85
2022-10-05T12:36:19.405Z,26.35
2022-10-05T12:37:18.385Z,26.25
2022-10-05T12:38:18.387Z,26.06
2022-10-05T12:39:18.376Z,26.06
2022-10-05T12:40:18.377Z,26.04
2022-10-05T12:41:18.355Z,25.95
2022-10-05T12:42:18.348Z,25.67
2022-10-05T12:43:18.339Z,25.67
2022-10-05T12:44:18.350Z,25.85
2022-10-05T12:45:18.320Z,25.85
2022-10-05T12:46:18.300Z,25.77
2022-10-05T12:47:18.311Z,25.76
2022-10-05T12:48:18.280Z,25.77
2022-10-05T12:49:18.291Z,25.79
2022-10-05T12:50:18.289Z,26.17
2022-10-05T12:51:18.255Z,25.87
2022-10-05T12:52:18.280Z,26.06